sensor_id;sensor_type;location;lat;lon;timestamp;temperature;humidity
45953;DHT22;31662;52.262;10.522;2023-08-07T00:02:09;16.10;99.90
45953;DHT22;31662;52.262;10.522;2023-08-07T00:04:34;16.10;99.90
45953;DHT22;31662;52.262;10.522;2023-08-07T00:07:00;16.10;99.90
45953;DHT22;31662;52.262;10.522;2023-08-07T00:09:25;16.10;99.90
45953;DHT22;31662;52.262;10.522;2023-08-07T00:11:51;16.10;99.90
45953;DHT22;31662;52.262;10.522;2023-08-07T00:14:16;16.10;99.90
45953;DHT22;31662;52.262;10.522;2023-08-07T00:16:42;16.10;99.90
45953;DHT22;31662;52.262;10.522;2023-08-07T00:19:07;16.10;99.90
45953;DHT22;31662;52.262;10.522;2023-08-07T00:21:33;16.10;99.90
45953;DHT22;31662;52.262;10.522;2023-08-07T00:24:01;16.10;99.90
45953;DHT22;31662;52.262;10.522;2023-08-07T00:26:26;16.10;99.90
45953;DHT22;31662;52.262;10.522;2023-08-07T00:28:52;16.10;99.90
45953;DHT22;31662;52.262;10.522;2023-08-07T00:31:18;16.10;99.90
45953;DHT22;31662;52.262;10.522;2023-08-07T00:33:43;16.10;99.90
45953;DHT22;31662;52.262;10.522;2023-08-07T00:36:09;16.10;99.90
45953;DHT22;31662;52.262;10.522;2023-08-07T00:38:34;16.10;99.90
45953;DHT22;31662;52.262;10.522;2023-08-07T00:41:00;16.10;99.90
45953;DHT22;31662;52.262;10.522;2023-08-07T00:43:25;16.10;99.90
45953;DHT22;31662;52.262;10.522;2023-08-07T00:45:51;16.10;99.90
45953;DHT22;31662;52.262;10.522;2023-08-07T00:48:17;16.10;99.90
45953;DHT22;31662;52.262;10.522;2023-08-07T00:50:44;16.00;99.90
45953;DHT22;31662;52.262;10.522;2023-08-07T00:53:11;16.00;99.90
45953;DHT22;31662;52.262;10.522;2023-08-07T00:55:37;16.00;99.90
45953;DHT22;31662;52.262;10.522;2023-08-07T00:58:02;16.00;99.90
45953;DHT22;31662;52.262;10.522;2023-08-07T01:00:29;15.90;99.90
45953;DHT22;31662;52.262;10.522;2023-08-07T01:02:56;15.80;99.90
45953;DHT22;31662;52.262;10.522;2023-08-07T01:05:26;15.80;99.90
45953;DHT22;31662;52.262;10.522;2023-08-07T01:07:53;15.70;99.90
45953;DHT22;31662;52.262;10.522;2023-08-07T01:10:35;15.50;99.90
45953;DHT22;31662;52.262;10.522;2023-08-07T01:13:15;15.40;99.90
45953;DHT22;31662;52.262;10.522;2023-08-07T01:15:42;15.20;99.90
45953;DHT22;31662;52.262;10.522;2023-08-07T01:18:07;15.20;99.90
45953;DHT22;31662;52.262;10.522;2023-08-07T01:20:33;15.20;99.90
45953;DHT22;31662;52.262;10.522;2023-08-07T01:22:59;15.10;99.90
45953;DHT22;31662;52.262;10.522;2023-08-07T01:25:25;15.10;99.90
45953;DHT22;31662;52.262;10.522;2023-08-07T01:28:16;15.00;99.90
45953;DHT22;31662;52.262;10.522;2023-08-07T01:30:46;15.00;99.90
45953;DHT22;31662;52.262;10.522;2023-08-07T01:33:31;14.90;99.90
45953;DHT22;31662;52.262;10.522;2023-08-07T01:36:00;14.90;99.90
45953;DHT22;31662;52.262;10.522;2023-08-07T01:38:27;14.90;99.90
45953;DHT22;31662;52.262;10.522;2023-08-07T01:40:53;14.90;99.90
45953;DHT22;31662;52.262;10.522;2023-08-07T01:43:19;15.00;99.90
45953;DHT22;31662;52.262;10.522;2023-08-07T01:45:45;15.00;99.90
45953;DHT22;31662;52.262;10.522;2023-08-07T01:48:11;15.00;99.90
45953;DHT22;31662;52.262;10.522;2023-08-07T01:50:38;15.00;99.90
45953;DHT22;31662;52.262;10.522;2023-08-07T01:53:04;15.00;99.90
45953;DHT22;31662;52.262;10.522;2023-08-07T01:55:30;15.00;99.90
45953;DHT22;31662;52.262;10.522;2023-08-07T01:57:56;15.10;99.90
45953;DHT22;31662;52.262;10.522;2023-08-07T02:00:22;15.10;99.90
45953;DHT22;31662;52.262;10.522;2023-08-07T02:02:48;15.10;99.90
45953;DHT22;31662;52.262;10.522;2023-08-07T02:05:14;15.10;99.90
45953;DHT22;31662;52.262;10.522;2023-08-07T02:07:40;15.20;99.90
45953;DHT22;31662;52.262;10.522;2023-08-07T02:10:06;15.20;99.90
45953;DHT22;31662;52.262;10.522;2023-08-07T02:12:31;15.20;99.90
45953;DHT22;31662;52.262;10.522;2023-08-07T02:14:58;15.10;99.90
45953;DHT22;31662;52.262;10.522;2023-08-07T02:17:25;15.10;99.90
45953;DHT22;31662;52.262;10.522;2023-08-07T02:19:51;15.20;99.90
45953;DHT22;31662;52.262;10.522;2023-08-07T02:22:16;15.10;99.90
45953;DHT22;31662;52.262;10.522;2023-08-07T02:24:42;15.10;99.90
45953;DHT22;31662;52.262;10.522;2023-08-07T02:27:07;15.10;99.90
45953;DHT22;31662;52.262;10.522;2023-08-07T02:29:33;15.10;99.90
45953;DHT22;31662;52.262;10.522;2023-08-07T02:32:02;15.10;99.90
45953;DHT22;31662;52.262;10.522;2023-08-07T02:34:31;15.20;99.90
45953;DHT22;31662;52.262;10.522;2023-08-07T02:36:56;15.20;99.90
45953;DHT22;31662;52.262;10.522;2023-08-07T02:39:22;15.20;99.90
45953;DHT22;31662;52.262;10.522;2023-08-07T02:41:48;15.20;99.90
45953;DHT22;31662;52.262;10.522;2023-08-07T02:44:13;15.20;99.90
45953;DHT22;31662;52.262;10.522;2023-08-07T02:46:39;15.20;99.90
45953;DHT22;31662;52.262;10.522;2023-08-07T02:49:04;15.20;99.90
45953;DHT22;31662;52.262;10.522;2023-08-07T02:51:30;15.20;99.90
45953;DHT22;31662;52.262;10.522;2023-08-07T02:53:56;15.20;99.90
45953;DHT22;31662;52.262;10.522;2023-08-07T02:56:21;15.20;99.90
45953;DHT22;31662;52.262;10.522;2023-08-07T02:58:47;15.20;99.90
45953;DHT22;31662;52.262;10.522;2023-08-07T03:01:13;15.20;99.90
45953;DHT22;31662;52.262;10.522;2023-08-07T03:03:38;15.20;99.90
45953;DHT22;31662;52.262;10.522;2023-08-07T03:06:04;15.20;99.90
45953;DHT22;31662;52.262;10.522;2023-08-07T03:08:29;15.20;99.90
45953;DHT22;31662;52.262;10.522;2023-08-07T03:10:57;15.20;99.90
45953;DHT22;31662;52.262;10.522;2023-08-07T03:13:23;15.10;99.90
45953;DHT22;31662;52.262;10.522;2023-08-07T03:15:49;15.10;99.90
45953;DHT22;31662;52.262;10.522;2023-08-07T03:18:18;15.10;99.90
45953;DHT22;31662;52.262;10.522;2023-08-07T03:20:44;15.10;99.90
45953;DHT22;31662;52.262;10.522;2023-08-07T03:23:10;15.10;99.90
45953;DHT22;31662;52.262;10.522;2023-08-07T03:25:36;15.10;99.90
45953;DHT22;31662;52.262;10.522;2023-08-07T03:28:02;15.10;99.90
45953;DHT22;31662;52.262;10.522;2023-08-07T03:30:28;15.10;99.90
45953;DHT22;31662;52.262;10.522;2023-08-07T03:32:53;15.10;99.90
45953;DHT22;31662;52.262;10.522;2023-08-07T03:35:19;15.10;99.90
45953;DHT22;31662;52.262;10.522;2023-08-07T03:37:44;15.10;99.90
45953;DHT22;31662;52.262;10.522;2023-08-07T03:40:10;15.10;99.90
45953;DHT22;31662;52.262;10.522;2023-08-07T03:42:36;15.10;99.90
45953;DHT22;31662;52.262;10.522;2023-08-07T03:45:01;15.10;99.90
45953;DHT22;31662;52.262;10.522;2023-08-07T03:47:27;15.00;99.90
45953;DHT22;31662;52.262;10.522;2023-08-07T03:49:52;15.00;99.90
45953;DHT22;31662;52.262;10.522;2023-08-07T03:52:18;15.00;99.90
45953;DHT22;31662;52.262;10.522;2023-08-07T03:54:43;15.00;99.90
45953;DHT22;31662;52.262;10.522;2023-08-07T03:57:09;15.00;99.90
45953;DHT22;31662;52.262;10.522;2023-08-07T03:59:36;15.10;99.90
45953;DHT22;31662;52.262;10.522;2023-08-07T04:02:01;15.10;99.90
45953;DHT22;31662;52.262;10.522;2023-08-07T04:04:27;15.10;99.90
45953;DHT22;31662;52.262;10.522;2023-08-07T04:06:52;15.10;99.90
45953;DHT22;31662;52.262;10.522;2023-08-07T04:09:18;15.10;99.90
45953;DHT22;31662;52.262;10.522;2023-08-07T04:11:43;15.10;99.90
45953;DHT22;31662;52.262;10.522;2023-08-07T04:14:09;15.00;99.90
45953;DHT22;31662;52.262;10.522;2023-08-07T04:16:34;15.00;99.90
45953;DHT22;31662;52.262;10.522;2023-08-07T04:19:02;15.00;99.90
45953;DHT22;31662;52.262;10.522;2023-08-07T04:21:27;15.00;99.90
45953;DHT22;31662;52.262;10.522;2023-08-07T04:23:53;15.00;99.90
45953;DHT22;31662;52.262;10.522;2023-08-07T04:26:19;15.00;99.90
45953;DHT22;31662;52.262;10.522;2023-08-07T04:28:44;15.00;99.90
45953;DHT22;31662;52.262;10.522;2023-08-07T04:31:10;15.00;99.90
45953;DHT22;31662;52.262;10.522;2023-08-07T04:33:35;15.00;99.90
45953;DHT22;31662;52.262;10.522;2023-08-07T04:36:01;15.00;99.90
45953;DHT22;31662;52.262;10.522;2023-08-07T04:38:27;15.00;99.90
45953;DHT22;31662;52.262;10.522;2023-08-07T04:40:52;15.10;99.90
45953;DHT22;31662;52.262;10.522;2023-08-07T04:43:19;15.10;99.90
45953;DHT22;31662;52.262;10.522;2023-08-07T04:45:48;15.10;99.90
45953;DHT22;31662;52.262;10.522;2023-08-07T04:48:14;15.10;99.90
45953;DHT22;31662;52.262;10.522;2023-08-07T04:50:40;15.10;99.90
45953;DHT22;31662;52.262;10.522;2023-08-07T04:53:06;15.10;99.90
45953;DHT22;31662;52.262;10.522;2023-08-07T04:55:32;15.10;99.90
45953;DHT22;31662;52.262;10.522;2023-08-07T04:57:58;15.10;99.90
45953;DHT22;31662;52.262;10.522;2023-08-07T05:00:24;15.10;99.90
45953;DHT22;31662;52.262;10.522;2023-08-07T05:02:49;15.10;99.90
45953;DHT22;31662;52.262;10.522;2023-08-07T05:05:16;15.10;99.90
45953;DHT22;31662;52.262;10.522;2023-08-07T05:07:42;15.10;99.90
45953;DHT22;31662;52.262;10.522;2023-08-07T05:10:09;15.10;99.90
45953;DHT22;31662;52.262;10.522;2023-08-07T05:12:34;15.10;99.90
45953;DHT22;31662;52.262;10.522;2023-08-07T05:15:00;15.10;99.90
45953;DHT22;31662;52.262;10.522;2023-08-07T05:17:25;15.10;99.90
45953;DHT22;31662;52.262;10.522;2023-08-07T05:19:51;15.10;99.90
45953;DHT22;31662;52.262;10.522;2023-08-07T05:22:17;15.10;99.90
45953;DHT22;31662;52.262;10.522;2023-08-07T05:24:42;15.10;99.90
45953;DHT22;31662;52.262;10.522;2023-08-07T05:27:10;15.10;99.90
45953;DHT22;31662;52.262;10.522;2023-08-07T05:29:36;15.10;99.90
45953;DHT22;31662;52.262;10.522;2023-08-07T05:32:09;15.10;99.90
45953;DHT22;31662;52.262;10.522;2023-08-07T05:34:35;15.20;99.90
45953;DHT22;31662;52.262;10.522;2023-08-07T05:37:00;15.20;99.90
45953;DHT22;31662;52.262;10.522;2023-08-07T05:39:26;15.10;99.90
45953;DHT22;31662;52.262;10.522;2023-08-07T05:41:51;15.10;99.90
45953;DHT22;31662;52.262;10.522;2023-08-07T05:44:19;15.20;99.90
45953;DHT22;31662;52.262;10.522;2023-08-07T05:46:44;15.30;99.90
45953;DHT22;31662;52.262;10.522;2023-08-07T05:49:10;15.30;99.90
45953;DHT22;31662;52.262;10.522;2023-08-07T05:51:35;15.40;99.90
45953;DHT22;31662;52.262;10.522;2023-08-07T05:54:01;15.40;99.90
45953;DHT22;31662;52.262;10.522;2023-08-07T05:56:26;15.40;99.90
45953;DHT22;31662;52.262;10.522;2023-08-07T05:58:52;15.40;99.90
45953;DHT22;31662;52.262;10.522;2023-08-07T06:01:17;15.40;99.90
45953;DHT22;31662;52.262;10.522;2023-08-07T06:03:43;15.30;99.90
45953;DHT22;31662;52.262;10.522;2023-08-07T06:06:09;15.20;99.90
45953;DHT22;31662;52.262;10.522;2023-08-07T06:08:34;15.10;99.90
45953;DHT22;31662;52.262;10.522;2023-08-07T06:11:00;15.10;99.90
45953;DHT22;31662;52.262;10.522;2023-08-07T06:13:29;15.10;99.90
45953;DHT22;31662;52.262;10.522;2023-08-07T06:15:54;15.10;99.90
45953;DHT22;31662;52.262;10.522;2023-08-07T06:18:20;15.10;99.90
45953;DHT22;31662;52.262;10.522;2023-08-07T06:20:46;15.10;99.90
45953;DHT22;31662;52.262;10.522;2023-08-07T06:23:12;15.10;99.90
45953;DHT22;31662;52.262;10.522;2023-08-07T06:25:37;15.10;99.90
45953;DHT22;31662;52.262;10.522;2023-08-07T06:28:03;15.10;99.90
45953;DHT22;31662;52.262;10.522;2023-08-07T06:30:30;15.10;99.90
45953;DHT22;31662;52.262;10.522;2023-08-07T06:32:56;15.20;99.90
45953;DHT22;31662;52.262;10.522;2023-08-07T06:35:23;15.10;99.90
45953;DHT22;31662;52.262;10.522;2023-08-07T06:37:49;15.00;99.90
45953;DHT22;31662;52.262;10.522;2023-08-07T06:40:15;15.00;99.90
45953;DHT22;31662;52.262;10.522;2023-08-07T06:42:41;15.00;99.90
45953;DHT22;31662;52.262;10.522;2023-08-07T06:45:08;14.90;99.90
45953;DHT22;31662;52.262;10.522;2023-08-07T06:47:37;15.00;99.90
45953;DHT22;31662;52.262;10.522;2023-08-07T06:50:04;14.90;99.90
45953;DHT22;31662;52.262;10.522;2023-08-07T06:52:30;14.90;99.90
45953;DHT22;31662;52.262;10.522;2023-08-07T06:54:56;14.90;99.90
45953;DHT22;31662;52.262;10.522;2023-08-07T06:57:23;14.90;99.90
45953;DHT22;31662;52.262;10.522;2023-08-07T06:59:49;14.90;99.90
45953;DHT22;31662;52.262;10.522;2023-08-07T07:02:15;14.90;99.90
45953;DHT22;31662;52.262;10.522;2023-08-07T07:04:44;15.00;99.90
45953;DHT22;31662;52.262;10.522;2023-08-07T07:07:10;15.10;99.90
45953;DHT22;31662;52.262;10.522;2023-08-07T07:09:39;15.20;99.90
45953;DHT22;31662;52.262;10.522;2023-08-07T07:12:05;15.30;99.90
45953;DHT22;31662;52.262;10.522;2023-08-07T07:14:32;15.40;99.90
45953;DHT22;31662;52.262;10.522;2023-08-07T07:17:00;15.50;99.90
45953;DHT22;31662;52.262;10.522;2023-08-07T07:19:26;15.50;99.90
45953;DHT22;31662;52.262;10.522;2023-08-07T07:21:52;15.60;99.90
45953;DHT22;31662;52.262;10.522;2023-08-07T07:24:21;15.70;99.90
45953;DHT22;31662;52.262;10.522;2023-08-07T07:26:49;15.60;99.90
45953;DHT22;31662;52.262;10.522;2023-08-07T07:29:17;15.60;99.90
45953;DHT22;31662;52.262;10.522;2023-08-07T07:31:44;15.70;99.90
45953;DHT22;31662;52.262;10.522;2023-08-07T07:34:10;15.70;99.90
45953;DHT22;31662;52.262;10.522;2023-08-07T07:36:35;15.70;99.90
45953;DHT22;31662;52.262;10.522;2023-08-07T07:39:01;15.60;99.90
45953;DHT22;31662;52.262;10.522;2023-08-07T07:41:26;15.70;99.90
45953;DHT22;31662;52.262;10.522;2023-08-07T07:43:53;15.90;99.90
45953;DHT22;31662;52.262;10.522;2023-08-07T07:46:18;16.00;99.90
45953;DHT22;31662;52.262;10.522;2023-08-07T07:48:44;16.00;99.90
45953;DHT22;31662;52.262;10.522;2023-08-07T07:51:09;16.10;99.90
45953;DHT22;31662;52.262;10.522;2023-08-07T07:53:35;16.20;99.90
45953;DHT22;31662;52.262;10.522;2023-08-07T07:56:01;16.30;99.90
45953;DHT22;31662;52.262;10.522;2023-08-07T07:58:26;16.40;99.90
45953;DHT22;31662;52.262;10.522;2023-08-07T08:00:52;16.50;99.90
45953;DHT22;31662;52.262;10.522;2023-08-07T08:03:19;16.60;99.90
45953;DHT22;31662;52.262;10.522;2023-08-07T08:05:48;16.70;99.90
45953;DHT22;31662;52.262;10.522;2023-08-07T08:08:14;16.80;99.90
45953;DHT22;31662;52.262;10.522;2023-08-07T08:10:39;17.10;99.90
45953;DHT22;31662;52.262;10.522;2023-08-07T08:13:05;17.40;99.90
45953;DHT22;31662;52.262;10.522;2023-08-07T08:15:30;17.60;99.90
45953;DHT22;31662;52.262;10.522;2023-08-07T08:17:56;17.80;99.90
45953;DHT22;31662;52.262;10.522;2023-08-07T08:20:21;17.90;99.90
45953;DHT22;31662;52.262;10.522;2023-08-07T08:22:47;17.90;99.90
45953;DHT22;31662;52.262;10.522;2023-08-07T08:25:13;17.90;99.90
45953;DHT22;31662;52.262;10.522;2023-08-07T08:27:39;17.90;99.90
45953;DHT22;31662;52.262;10.522;2023-08-07T08:30:05;18.00;99.90
45953;DHT22;31662;52.262;10.522;2023-08-07T08:32:31;17.80;99.90
45953;DHT22;31662;52.262;10.522;2023-08-07T08:34:57;17.80;99.90
45953;DHT22;31662;52.262;10.522;2023-08-07T08:37:22;17.90;99.90
45953;DHT22;31662;52.262;10.522;2023-08-07T08:39:48;17.90;99.90
45953;DHT22;31662;52.262;10.522;2023-08-07T08:42:14;17.90;99.90
45953;DHT22;31662;52.262;10.522;2023-08-07T08:44:45;17.90;99.90
45953;DHT22;31662;52.262;10.522;2023-08-07T08:47:12;17.80;99.90
45953;DHT22;31662;52.262;10.522;2023-08-07T08:49:45;17.70;99.90
45953;DHT22;31662;52.262;10.522;2023-08-07T08:52:11;17.70;99.90
45953;DHT22;31662;52.262;10.522;2023-08-07T08:54:38;17.80;99.90
45953;DHT22;31662;52.262;10.522;2023-08-07T08:57:04;18.00;99.90
45953;DHT22;31662;52.262;10.522;2023-08-07T08:59:30;18.00;99.90
45953;DHT22;31662;52.262;10.522;2023-08-07T09:01:56;18.10;99.90
45953;DHT22;31662;52.262;10.522;2023-08-07T09:04:21;18.20;99.90
45953;DHT22;31662;52.262;10.522;2023-08-07T09:06:47;18.00;99.90
45953;DHT22;31662;52.262;10.522;2023-08-07T09:09:14;18.00;99.90
45953;DHT22;31662;52.262;10.522;2023-08-07T09:11:45;17.90;99.90
45953;DHT22;31662;52.262;10.522;2023-08-07T09:14:20;17.80;99.90
45953;DHT22;31662;52.262;10.522;2023-08-07T09:16:48;17.70;99.90
45953;DHT22;31662;52.262;10.522;2023-08-07T09:19:14;17.50;99.90
45953;DHT22;31662;52.262;10.522;2023-08-07T09:21:39;17.40;99.90
45953;DHT22;31662;52.262;10.522;2023-08-07T09:24:05;17.30;99.90
45953;DHT22;31662;52.262;10.522;2023-08-07T09:26:32;17.40;99.90
45953;DHT22;31662;52.262;10.522;2023-08-07T09:29:02;17.60;99.90
45953;DHT22;31662;52.262;10.522;2023-08-07T09:31:28;17.80;99.90
45953;DHT22;31662;52.262;10.522;2023-08-07T09:34:01;17.80;99.90
45953;DHT22;31662;52.262;10.522;2023-08-07T09:36:30;17.80;99.90
45953;DHT22;31662;52.262;10.522;2023-08-07T09:38:55;17.60;99.90
45953;DHT22;31662;52.262;10.522;2023-08-07T09:41:21;17.30;99.90
45953;DHT22;31662;52.262;10.522;2023-08-07T09:43:47;17.10;99.90
45953;DHT22;31662;52.262;10.522;2023-08-07T09:46:12;17.00;99.90
45953;DHT22;31662;52.262;10.522;2023-08-07T09:48:43;16.90;99.90
45953;DHT22;31662;52.262;10.522;2023-08-07T09:51:10;16.70;99.90
45953;DHT22;31662;52.262;10.522;2023-08-07T09:53:36;16.40;99.90
45953;DHT22;31662;52.262;10.522;2023-08-07T09:56:02;16.20;99.90
45953;DHT22;31662;52.262;10.522;2023-08-07T09:58:28;16.10;99.90
45953;DHT22;31662;52.262;10.522;2023-08-07T10:00:54;16.20;99.90
45953;DHT22;31662;52.262;10.522;2023-08-07T10:03:25;16.20;99.90
45953;DHT22;31662;52.262;10.522;2023-08-07T10:05:51;16.30;99.90
45953;DHT22;31662;52.262;10.522;2023-08-07T10:08:18;16.40;99.90
45953;DHT22;31662;52.262;10.522;2023-08-07T10:10:44;16.50;99.90
45953;DHT22;31662;52.262;10.522;2023-08-07T10:13:13;16.60;99.90
45953;DHT22;31662;52.262;10.522;2023-08-07T10:15:40;16.70;99.90
45953;DHT22;31662;52.262;10.522;2023-08-07T10:18:07;16.80;99.90
45953;DHT22;31662;52.262;10.522;2023-08-07T10:20:34;17.00;99.90
45953;DHT22;31662;52.262;10.522;2023-08-07T10:23:04;17.30;99.90
45953;DHT22;31662;52.262;10.522;2023-08-07T10:25:32;17.60;99.90
45953;DHT22;31662;52.262;10.522;2023-08-07T10:27:59;17.70;99.90
45953;DHT22;31662;52.262;10.522;2023-08-07T10:30:26;17.70;99.90
45953;DHT22;31662;52.262;10.522;2023-08-07T10:32:52;17.80;99.90
45953;DHT22;31662;52.262;10.522;2023-08-07T10:35:45;17.80;99.90
45953;DHT22;31662;52.262;10.522;2023-08-07T10:38:12;17.90;99.90
45953;DHT22;31662;52.262;10.522;2023-08-07T10:40:59;18.00;99.90
45953;DHT22;31662;52.262;10.522;2023-08-07T10:43:25;18.00;99.90
45953;DHT22;31662;52.262;10.522;2023-08-07T10:45:53;18.10;99.90
45953;DHT22;31662;52.262;10.522;2023-08-07T10:48:19;18.20;99.90
45953;DHT22;31662;52.262;10.522;2023-08-07T10:50:57;18.40;99.90
45953;DHT22;31662;52.262;10.522;2023-08-07T10:53:30;18.50;99.90
45953;DHT22;31662;52.262;10.522;2023-08-07T10:55:56;18.40;99.90
45953;DHT22;31662;52.262;10.522;2023-08-07T10:58:23;18.30;99.90
45953;DHT22;31662;52.262;10.522;2023-08-07T11:00:51;18.10;99.90
45953;DHT22;31662;52.262;10.522;2023-08-07T11:03:28;17.90;99.90
45953;DHT22;31662;52.262;10.522;2023-08-07T11:05:57;17.70;99.90
45953;DHT22;31662;52.262;10.522;2023-08-07T11:08:23;17.90;99.90
45953;DHT22;31662;52.262;10.522;2023-08-07T11:10:53;18.10;99.90
45953;DHT22;31662;52.262;10.522;2023-08-07T11:13:20;18.30;99.90
45953;DHT22;31662;52.262;10.522;2023-08-07T11:15:46;18.40;99.90
45953;DHT22;31662;52.262;10.522;2023-08-07T11:18:11;18.30;99.90
45953;DHT22;31662;52.262;10.522;2023-08-07T11:20:37;18.10;99.90
45953;DHT22;31662;52.262;10.522;2023-08-07T11:23:04;17.90;99.90
45953;DHT22;31662;52.262;10.522;2023-08-07T11:25:30;17.80;99.90
45953;DHT22;31662;52.262;10.522;2023-08-07T11:27:56;17.60;99.90
45953;DHT22;31662;52.262;10.522;2023-08-07T11:30:21;17.40;99.90
45953;DHT22;31662;52.262;10.522;2023-08-07T11:32:47;17.40;99.90
45953;DHT22;31662;52.262;10.522;2023-08-07T11:35:12;17.40;99.90
45953;DHT22;31662;52.262;10.522;2023-08-07T11:37:46;17.50;99.90
45953;DHT22;31662;52.262;10.522;2023-08-07T11:40:11;17.60;99.90
45953;DHT22;31662;52.262;10.522;2023-08-07T11:42:37;17.60;99.90
45953;DHT22;31662;52.262;10.522;2023-08-07T11:45:03;17.50;99.90
45953;DHT22;31662;52.262;10.522;2023-08-07T11:47:29;17.50;99.90
45953;DHT22;31662;52.262;10.522;2023-08-07T11:49:55;17.50;99.90
45953;DHT22;31662;52.262;10.522;2023-08-07T11:52:21;17.50;99.90
45953;DHT22;31662;52.262;10.522;2023-08-07T11:54:48;17.30;99.90
45953;DHT22;31662;52.262;10.522;2023-08-07T11:57:19;17.10;99.90
45953;DHT22;31662;52.262;10.522;2023-08-07T11:59:49;16.80;99.90
45953;DHT22;31662;52.262;10.522;2023-08-07T12:02:14;16.60;99.90
45953;DHT22;31662;52.262;10.522;2023-08-07T12:04:40;16.40;99.90
45953;DHT22;31662;52.262;10.522;2023-08-07T12:07:05;16.40;99.90
45953;DHT22;31662;52.262;10.522;2023-08-07T12:09:31;16.30;99.90
45953;DHT22;31662;52.262;10.522;2023-08-07T12:11:59;16.30;99.90
45953;DHT22;31662;52.262;10.522;2023-08-07T12:14:30;16.40;99.90
45953;DHT22;31662;52.262;10.522;2023-08-07T12:16:56;16.50;99.90
45953;DHT22;31662;52.262;10.522;2023-08-07T12:19:22;16.70;99.90
45953;DHT22;31662;52.262;10.522;2023-08-07T12:21:47;17.10;99.90
45953;DHT22;31662;52.262;10.522;2023-08-07T12:24:13;17.30;99.90
45953;DHT22;31662;52.262;10.522;2023-08-07T12:26:39;17.50;99.90
45953;DHT22;31662;52.262;10.522;2023-08-07T12:29:04;17.60;99.90
45953;DHT22;31662;52.262;10.522;2023-08-07T12:31:30;17.70;99.90
45953;DHT22;31662;52.262;10.522;2023-08-07T12:33:55;17.90;99.90
45953;DHT22;31662;52.262;10.522;2023-08-07T12:36:21;18.10;99.10
45953;DHT22;31662;52.262;10.522;2023-08-07T12:38:47;18.10;99.50
45953;DHT22;31662;52.262;10.522;2023-08-07T12:41:12;18.10;99.50
45953;DHT22;31662;52.262;10.522;2023-08-07T12:43:39;18.00;99.70
45953;DHT22;31662;52.262;10.522;2023-08-07T12:46:05;17.70;98.50
45953;DHT22;31662;52.262;10.522;2023-08-07T12:48:30;17.40;98.80
45953;DHT22;31662;52.262;10.522;2023-08-07T12:50:56;17.30;98.90
45953;DHT22;31662;52.262;10.522;2023-08-07T12:53:21;17.40;98.40
45953;DHT22;31662;52.262;10.522;2023-08-07T12:55:47;17.50;98.80
45953;DHT22;31662;52.262;10.522;2023-08-07T12:58:12;17.70;98.70
45953;DHT22;31662;52.262;10.522;2023-08-07T13:00:38;17.80;98.70
45953;DHT22;31662;52.262;10.522;2023-08-07T13:03:03;17.70;97.70
45953;DHT22;31662;52.262;10.522;2023-08-07T13:05:29;17.60;97.90
45953;DHT22;31662;52.262;10.522;2023-08-07T13:07:58;17.60;97.60
45953;DHT22;31662;52.262;10.522;2023-08-07T13:10:24;17.60;97.70
45953;DHT22;31662;52.262;10.522;2023-08-07T13:12:49;17.70;98.00
45953;DHT22;31662;52.262;10.522;2023-08-07T13:15:16;17.90;97.70
45953;DHT22;31662;52.262;10.522;2023-08-07T13:17:43;18.00;97.70
45953;DHT22;31662;52.262;10.522;2023-08-07T13:20:10;17.90;97.40
45953;DHT22;31662;52.262;10.522;2023-08-07T13:22:39;17.80;97.20
45953;DHT22;31662;52.262;10.522;2023-08-07T13:25:06;17.80;97.40
45953;DHT22;31662;52.262;10.522;2023-08-07T13:27:33;17.90;97.20
45953;DHT22;31662;52.262;10.522;2023-08-07T13:29:58;18.00;96.20
45953;DHT22;31662;52.262;10.522;2023-08-07T13:32:25;18.10;96.50
45953;DHT22;31662;52.262;10.522;2023-08-07T13:34:51;18.20;95.90
45953;DHT22;31662;52.262;10.522;2023-08-07T13:37:16;18.20;96.00
45953;DHT22;31662;52.262;10.522;2023-08-07T13:39:42;18.40;96.00
45953;DHT22;31662;52.262;10.522;2023-08-07T13:42:07;18.40;94.60
45953;DHT22;31662;52.262;10.522;2023-08-07T13:44:33;18.40;95.00
45953;DHT22;31662;52.262;10.522;2023-08-07T13:47:00;18.50;94.60
45953;DHT22;31662;52.262;10.522;2023-08-07T13:49:26;18.60;93.90
45953;DHT22;31662;52.262;10.522;2023-08-07T13:51:52;18.70;93.50
45953;DHT22;31662;52.262;10.522;2023-08-07T13:54:17;18.70;93.30
45953;DHT22;31662;52.262;10.522;2023-08-07T13:56:43;18.60;93.30
45953;DHT22;31662;52.262;10.522;2023-08-07T13:59:09;18.40;94.00
45953;DHT22;31662;52.262;10.522;2023-08-07T14:01:35;18.30;94.40
45953;DHT22;31662;52.262;10.522;2023-08-07T14:04:01;18.00;94.60
45953;DHT22;31662;52.262;10.522;2023-08-07T14:06:27;17.70;95.50
45953;DHT22;31662;52.262;10.522;2023-08-07T14:08:53;17.50;96.60
45953;DHT22;31662;52.262;10.522;2023-08-07T14:11:19;17.30;97.50
45953;DHT22;31662;52.262;10.522;2023-08-07T14:13:45;17.00;99.30
45953;DHT22;31662;52.262;10.522;2023-08-07T14:16:12;16.80;99.90
45953;DHT22;31662;52.262;10.522;2023-08-07T14:18:37;16.70;99.90
45953;DHT22;31662;52.262;10.522;2023-08-07T14:21:03;16.70;99.40
45953;DHT22;31662;52.262;10.522;2023-08-07T14:23:29;16.80;98.60
45953;DHT22;31662;52.262;10.522;2023-08-07T14:25:54;16.90;98.30
45953;DHT22;31662;52.262;10.522;2023-08-07T14:28:20;17.10;98.00
45953;DHT22;31662;52.262;10.522;2023-08-07T14:30:45;17.30;98.50
45953;DHT22;31662;52.262;10.522;2023-08-07T14:33:11;17.60;96.70
45953;DHT22;31662;52.262;10.522;2023-08-07T14:35:37;17.70;96.80
45953;DHT22;31662;52.262;10.522;2023-08-07T14:38:02;17.80;96.00
45953;DHT22;31662;52.262;10.522;2023-08-07T14:40:28;17.90;96.10
45953;DHT22;31662;52.262;10.522;2023-08-07T14:42:54;18.10;95.60
45953;DHT22;31662;52.262;10.522;2023-08-07T14:45:20;18.20;95.90
45953;DHT22;31662;52.262;10.522;2023-08-07T14:47:49;18.30;95.40
45953;DHT22;31662;52.262;10.522;2023-08-07T14:50:14;18.30;94.10
45953;DHT22;31662;52.262;10.522;2023-08-07T14:52:42;18.20;94.00
45953;DHT22;31662;52.262;10.522;2023-08-07T14:55:08;18.10;93.40
45953;DHT22;31662;52.262;10.522;2023-08-07T14:57:33;18.10;93.30
45953;DHT22;31662;52.262;10.522;2023-08-07T14:59:59;18.00;93.30
45953;DHT22;31662;52.262;10.522;2023-08-07T15:02:24;17.90;93.70
45953;DHT22;31662;52.262;10.522;2023-08-07T15:04:50;17.90;93.70
45953;DHT22;31662;52.262;10.522;2023-08-07T15:07:16;17.90;94.00
45953;DHT22;31662;52.262;10.522;2023-08-07T15:09:41;17.90;94.00
45953;DHT22;31662;52.262;10.522;2023-08-07T15:12:07;17.90;94.00